sensor_id;sensor_type;location;lat;lon;timestamp;P1;durP1;ratioP1;P2;durP2;ratioP2
19645;SDS011;9971;52.446;13.452;2022-07-29T00:03:43;3.25;;;1.37;;
19645;SDS011;9971;52.446;13.452;2022-07-29T00:08:46;3.90;;;1.60;;
19645;SDS011;9971;52.446;13.452;2022-07-29T00:13:48;3.15;;;2.00;;
19645;SDS011;9971;52.446;13.452;2022-07-29T00:18:51;3.05;;;1.82;;
19645;SDS011;9971;52.446;13.452;2022-07-29T00:23:53;4.03;;;1.80;;
19645;SDS011;9971;52.446;13.452;2022-07-29T00:28:55;3.12;;;1.98;;
19645;SDS011;9971;52.446;13.452;2022-07-29T00:33:58;3.27;;;1.90;;
19645;SDS011;9971;52.446;13.452;2022-07-29T00:39:00;2.30;;;1.97;;
19645;SDS011;9971;52.446;13.452;2022-07-29T00:44:03;2.62;;;1.95;;
19645;SDS011;9971;52.446;13.452;2022-07-29T00:49:05;2.27;;;2.00;;
19645;SDS011;9971;52.446;13.452;2022-07-29T00:54:07;3.37;;;2.20;;
19645;SDS011;9971;52.446;13.452;2022-07-29T00:59:09;3.27;;;2.10;;
19645;SDS011;9971;52.446;13.452;2022-07-29T01:04:11;2.83;;;2.15;;
19645;SDS011;9971;52.446;13.452;2022-07-29T01:09:14;3.02;;;2.45;;
19645;SDS011;9971;52.446;13.452;2022-07-29T01:14:16;3.60;;;2.60;;
19645;SDS011;9971;52.446;13.452;2022-07-29T01:19:33;3.90;;;2.40;;
19645;SDS011;9971;52.446;13.452;2022-07-29T01:25:08;3.27;;;2.40;;
19645;SDS011;9971;52.446;13.452;2022-07-29T01:29:54;2.43;;;2.00;;
19645;SDS011;9971;52.446;13.452;2022-07-29T01:35:02;2.72;;;2.20;;
19645;SDS011;9971;52.446;13.452;2022-07-29T01:40:05;4.08;;;3.00;;
19645;SDS011;9971;52.446;13.452;2022-07-29T01:45:14;4.27;;;2.63;;
19645;SDS011;9971;52.446;13.452;2022-07-29T01:50:16;3.87;;;2.70;;
19645;SDS011;9971;52.446;13.452;2022-07-29T01:55:18;3.93;;;2.50;;
19645;SDS011;9971;52.446;13.452;2022-07-29T02:00:20;3.37;;;2.40;;
19645;SDS011;9971;52.446;13.452;2022-07-29T02:05:22;3.77;;;2.47;;
19645;SDS011;9971;52.446;13.452;2022-07-29T02:10:26;3.98;;;2.80;;
19645;SDS011;9971;52.446;13.452;2022-07-29T02:15:27;2.73;;;2.37;;
19645;SDS011;9971;52.446;13.452;2022-07-29T02:20:28;3.93;;;2.27;;
19645;SDS011;9971;52.446;13.452;2022-07-29T02:25:30;4.43;;;2.40;;
19645;SDS011;9971;52.446;13.452;2022-07-29T02:30:32;3.57;;;2.67;;
19645;SDS011;9971;52.446;13.452;2022-07-29T02:35:34;4.17;;;2.30;;
19645;SDS011;9971;52.446;13.452;2022-07-29T02:40:37;2.90;;;2.27;;
19645;SDS011;9971;52.446;13.452;2022-07-29T02:45:38;5.40;;;2.40;;
19645;SDS011;9971;52.446;13.452;2022-07-29T02:50:44;2.62;;;2.40;;
19645;SDS011;9971;52.446;13.452;2022-07-29T02:55:44;4.83;;;2.40;;
19645;SDS011;9971;52.446;13.452;2022-07-29T03:00:45;4.30;;;2.67;;
19645;SDS011;9971;52.446;13.452;2022-07-29T03:05:47;3.73;;;2.63;;
19645;SDS011;9971;52.446;13.452;2022-07-29T03:10:49;2.40;;;2.20;;
19645;SDS011;9971;52.446;13.452;2022-07-29T03:15:52;2.53;;;2.23;;
19645;SDS011;9971;52.446;13.452;2022-07-29T03:20:53;5.93;;;2.77;;
19645;SDS011;9971;52.446;13.452;2022-07-29T03:25:56;2.80;;;2.27;;
19645;SDS011;9971;52.446;13.452;2022-07-29T03:30:58;4.62;;;2.27;;
19645;SDS011;9971;52.446;13.452;2022-07-29T03:36:00;2.47;;;2.25;;
19645;SDS011;9971;52.446;13.452;2022-07-29T03:41:05;4.53;;;2.70;;
19645;SDS011;9971;52.446;13.452;2022-07-29T03:46:06;5.25;;;2.70;;
19645;SDS011;9971;52.446;13.452;2022-07-29T03:51:07;3.67;;;2.62;;
19645;SDS011;9971;52.446;13.452;2022-07-29T03:56:10;3.60;;;2.85;;
19645;SDS011;9971;52.446;13.452;2022-07-29T04:01:12;2.53;;;2.33;;
19645;SDS011;9971;52.446;13.452;2022-07-29T04:06:14;4.10;;;2.20;;
19645;SDS011;9971;52.446;13.452;2022-07-29T04:11:16;2.62;;;2.20;;
19645;SDS011;9971;52.446;13.452;2022-07-29T04:16:18;4.30;;;2.50;;
19645;SDS011;9971;52.446;13.452;2022-07-29T04:21:21;2.40;;;2.10;;
19645;SDS011;9971;52.446;13.452;2022-07-29T04:26:23;3.07;;;2.17;;
19645;SDS011;9971;52.446;13.452;2022-07-29T04:31:25;2.80;;;2.45;;
19645;SDS011;9971;52.446;13.452;2022-07-29T04:36:27;4.97;;;2.60;;
19645;SDS011;9971;52.446;13.452;2022-07-29T04:41:30;3.17;;;2.22;;
19645;SDS011;9971;52.446;13.452;2022-07-29T04:46:33;2.40;;;2.13;;
19645;SDS011;9971;52.446;13.452;2022-07-29T04:51:34;4.47;;;2.50;;
19645;SDS011;9971;52.446;13.452;2022-07-29T04:56:37;4.10;;;2.47;;
19645;SDS011;9971;52.446;13.452;2022-07-29T05:01:39;3.60;;;2.20;;
19645;SDS011;9971;52.446;13.452;2022-07-29T05:06:42;2.58;;;2.12;;
19645;SDS011;9971;52.446;13.452;2022-07-29T05:11:44;3.87;;;2.20;;
19645;SDS011;9971;52.446;13.452;2022-07-29T05:16:46;3.67;;;2.00;;
19645;SDS011;9971;52.446;13.452;2022-07-29T05:21:49;3.00;;;2.33;;
19645;SDS011;9971;52.446;13.452;2022-07-29T05:26:51;3.10;;;1.83;;
19645;SDS011;9971;52.446;13.452;2022-07-29T05:31:54;2.35;;;2.20;;
19645;SDS011;9971;52.446;13.452;2022-07-29T05:36:56;3.50;;;2.25;;
19645;SDS011;9971;52.446;13.452;2022-07-29T05:41:58;6.07;;;2.43;;
19645;SDS011;9971;52.446;13.452;2022-07-29T05:47:00;3.17;;;2.52;;
19645;SDS011;9971;52.446;13.452;2022-07-29T05:52:03;6.08;;;2.45;;
19645;SDS011;9971;52.446;13.452;2022-07-29T05:57:05;4.95;;;2.77;;
19645;SDS011;9971;52.446;13.452;2022-07-29T06:02:08;4.58;;;2.65;;
19645;SDS011;9971;52.446;13.452;2022-07-29T06:07:10;3.60;;;2.50;;
19645;SDS011;9971;52.446;13.452;2022-07-29T06:12:12;4.03;;;2.60;;
19645;SDS011;9971;52.446;13.452;2022-07-29T06:17:15;2.67;;;2.25;;
19645;SDS011;9971;52.446;13.452;2022-07-29T06:22:16;3.63;;;1.97;;
19645;SDS011;9971;52.446;13.452;2022-07-29T06:27:19;3.42;;;2.25;;
19645;SDS011;9971;52.446;13.452;2022-07-29T06:32:21;2.37;;;1.80;;
19645;SDS011;9971;52.446;13.452;2022-07-29T06:37:23;2.72;;;1.82;;
19645;SDS011;9971;52.446;13.452;2022-07-29T06:42:25;2.63;;;2.00;;
19645;SDS011;9971;52.446;13.452;2022-07-29T06:47:28;2.75;;;1.70;;
19645;SDS011;9971;52.446;13.452;2022-07-29T06:52:30;4.78;;;2.08;;
19645;SDS011;9971;52.446;13.452;2022-07-29T06:57:33;3.70;;;2.10;;
19645;SDS011;9971;52.446;13.452;2022-07-29T07:02:35;3.37;;;2.00;;
19645;SDS011;9971;52.446;13.452;2022-07-29T07:07:37;2.65;;;2.22;;
19645;SDS011;9971;52.446;13.452;2022-07-29T07:12:40;3.12;;;1.98;;
19645;SDS011;9971;52.446;13.452;2022-07-29T07:17:42;2.22;;;1.80;;
19645;SDS011;9971;52.446;13.452;2022-07-29T07:22:45;3.10;;;1.80;;
19645;SDS011;9971;52.446;13.452;2022-07-29T07:27:47;2.50;;;1.75;;
19645;SDS011;9971;52.446;13.452;2022-07-29T07:32:49;4.10;;;1.90;;
19645;SDS011;9971;52.446;13.452;2022-07-29T07:37:52;3.27;;;1.90;;
19645;SDS011;9971;52.446;13.452;2022-07-29T07:42:55;2.13;;;1.50;;
19645;SDS011;9971;52.446;13.452;2022-07-29T07:47:57;2.65;;;2.00;;
19645;SDS011;9971;52.446;13.452;2022-07-29T07:52:59;3.53;;;2.17;;
19645;SDS011;9971;52.446;13.452;2022-07-29T07:58:01;3.30;;;1.87;;
19645;SDS011;9971;52.446;13.452;2022-07-29T08:03:04;3.75;;;1.60;;
19645;SDS011;9971;52.446;13.452;2022-07-29T08:08:06;2.43;;;1.70;;
19645;SDS011;9971;52.446;13.452;2022-07-29T08:13:09;3.17;;;1.70;;
19645;SDS011;9971;52.446;13.452;2022-07-29T08:18:10;3.20;;;1.70;;
19645;SDS011;9971;52.446;13.452;2022-07-29T08:23:12;4.03;;;1.60;;
19645;SDS011;9971;52.446;13.452;2022-07-29T08:28:14;2.95;;;1.90;;
19645;SDS011;9971;52.446;13.452;2022-07-29T08:33:17;4.73;;;1.67;;
19645;SDS011;9971;52.446;13.452;2022-07-29T08:38:19;3.05;;;1.60;;
19645;SDS011;9971;52.446;13.452;2022-07-29T08:43:22;2.65;;;1.80;;
19645;SDS011;9971;52.446;13.452;2022-07-29T08:48:24;3.37;;;2.27;;
19645;SDS011;9971;52.446;13.452;2022-07-29T08:53:27;2.85;;;1.62;;
19645;SDS011;9971;52.446;13.452;2022-07-29T08:58:31;3.03;;;1.57;;
19645;SDS011;9971;52.446;13.452;2022-07-29T09:03:32;2.00;;;1.67;;
19645;SDS011;9971;52.446;13.452;2022-07-29T09:08:34;2.60;;;1.70;;
19645;SDS011;9971;52.446;13.452;2022-07-29T09:13:36;1.90;;;1.50;;
19645;SDS011;9971;52.446;13.452;2022-07-29T09:18:39;3.70;;;1.80;;
19645;SDS011;9971;52.446;13.452;2022-07-29T09:23:40;2.35;;;1.30;;
19645;SDS011;9971;52.446;13.452;2022-07-29T09:28:42;2.37;;;1.40;;
19645;SDS011;9971;52.446;13.452;2022-07-29T09:33:45;2.37;;;1.42;;
19645;SDS011;9971;52.446;13.452;2022-07-29T09:38:56;2.23;;;1.70;;
19645;SDS011;9971;52.446;13.452;2022-07-29T09:43:54;2.37;;;1.30;;
19645;SDS011;9971;52.446;13.452;2022-07-29T09:59:22;3.03;;;1.13;;
19645;SDS011;9971;52.446;13.452;2022-07-29T10:04:36;1.60;;;1.15;;
19645;SDS011;9971;52.446;13.452;2022-07-29T10:09:33;1.63;;;1.53;;
19645;SDS011;9971;52.446;13.452;2022-07-29T10:14:35;2.30;;;1.13;;
19645;SDS011;9971;52.446;13.452;2022-07-29T10:19:37;2.13;;;1.67;;
19645;SDS011;9971;52.446;13.452;2022-07-29T10:24:39;1.57;;;1.10;;
19645;SDS011;9971;52.446;13.452;2022-07-29T10:29:41;1.82;;;1.62;;
19645;SDS011;9971;52.446;13.452;2022-07-29T10:35:54;1.22;;;1.12;;
19645;SDS011;9971;52.446;13.452;2022-07-29T10:40:26;1.60;;;1.30;;
19645;SDS011;9971;52.446;13.452;2022-07-29T10:45:45;2.53;;;1.17;;
19645;SDS011;9971;52.446;13.452;2022-07-29T10:50:52;2.30;;;1.20;;
19645;SDS011;9971;52.446;13.452;2022-07-29T10:55:53;2.23;;;1.20;;
19645;SDS011;9971;52.446;13.452;2022-07-29T11:00:55;1.27;;;1.10;;
19645;SDS011;9971;52.446;13.452;2022-07-29T11:05:58;3.05;;;1.55;;
19645;SDS011;9971;52.446;13.452;2022-07-29T11:16:14;1.60;;;1.40;;
19645;SDS011;9971;52.446;13.452;2022-07-29T11:26:39;4.00;;;1.80;;
19645;SDS011;9971;52.446;13.452;2022-07-29T11:31:42;2.77;;;1.40;;
19645;SDS011;9971;52.446;13.452;2022-07-29T11:47:37;3.00;;;1.33;;
19645;SDS011;9971;52.446;13.452;2022-07-29T11:52:40;2.97;;;1.50;;
19645;SDS011;9971;52.446;13.452;2022-07-29T11:57:53;1.80;;;1.70;;
19645;SDS011;9971;52.446;13.452;2022-07-29T12:02:56;3.40;;;1.80;;
19645;SDS011;9971;52.446;13.452;2022-07-29T12:08:04;4.13;;;2.00;;
19645;SDS011;9971;52.446;13.452;2022-07-29T12:13:08;4.53;;;1.73;;
19645;SDS011;9971;52.446;13.452;2022-07-29T12:18:13;1.67;;;1.57;;
19645;SDS011;9971;52.446;13.452;2022-07-29T12:23:15;4.22;;;2.02;;
19645;SDS011;9971;52.446;13.452;2022-07-29T12:28:17;1.92;;;1.82;;
19645;SDS011;9971;52.446;13.452;2022-07-29T12:33:21;2.90;;;1.70;;
19645;SDS011;9971;52.446;13.452;2022-07-29T12:38:22;2.17;;;1.60;;
19645;SDS011;9971;52.446;13.452;2022-07-29T12:43:24;2.80;;;1.70;;
19645;SDS011;9971;52.446;13.452;2022-07-29T12:48:33;3.33;;;1.70;;
19645;SDS011;9971;52.446;13.452;2022-07-29T12:53:34;3.53;;;1.90;;
19645;SDS011;9971;52.446;13.452;2022-07-29T12:58:38;2.40;;;2.03;;
19645;SDS011;9971;52.446;13.452;2022-07-29T13:03:44;2.20;;;1.80;;
19645;SDS011;9971;52.446;13.452;2022-07-29T13:14:00;2.40;;;1.83;;
19645;SDS011;9971;52.446;13.452;2022-07-29T13:19:05;2.70;;;2.10;;
19645;SDS011;9971;52.446;13.452;2022-07-29T13:24:08;3.85;;;1.70;;
19645;SDS011;9971;52.446;13.452;2022-07-29T13:29:10;3.80;;;2.02;;
19645;SDS011;9971;52.446;13.452;2022-07-29T13:34:13;2.15;;;1.80;;
19645;SDS011;9971;52.446;13.452;2022-07-29T13:39:15;4.07;;;1.87;;
19645;SDS011;9971;52.446;13.452;2022-07-29T13:44:18;2.72;;;1.75;;
19645;SDS011;9971;52.446;13.452;2022-07-29T13:49:20;3.25;;;1.80;;
19645;SDS011;9971;52.446;13.452;2022-07-29T13:54:22;2.85;;;2.25;;
19645;SDS011;9971;52.446;13.452;2022-07-29T13:59:25;4.55;;;2.22;;
19645;SDS011;9971;52.446;13.452;2022-07-29T14:04:27;3.30;;;2.35;;
19645;SDS011;9971;52.446;13.452;2022-07-29T14:09:30;2.10;;;1.90;;
19645;SDS011;9971;52.446;13.452;2022-07-29T14:14:32;2.62;;;1.70;;
19645;SDS011;9971;52.446;13.452;2022-07-29T14:19:35;2.10;;;1.70;;
19645;SDS011;9971;52.446;13.452;2022-07-29T14:24:37;1.70;;;1.60;;
19645;SDS011;9971;52.446;13.452;2022-07-29T14:29:39;1.70;;;1.60;;
19645;SDS011;9971;52.446;13.452;2022-07-29T14:34:42;3.42;;;1.80;;
19645;SDS011;9971;52.446;13.452;2022-07-29T14:39:44;2.70;;;1.90;;
19645;SDS011;9971;52.446;13.452;2022-07-29T14:44:47;1.92;;;1.77;;
19645;SDS011;9971;52.446;13.452;2022-07-29T14:49:49;2.35;;;1.85;;
19645;SDS011;9971;52.446;13.452;2022-07-29T14:54:51;2.05;;;1.67;;
19645;SDS011;9971;52.446;13.452;2022-07-29T14:59:54;2.20;;;1.70;;
19645;SDS011;9971;52.446;13.452;2022-07-29T15:04:57;2.37;;;1.85;;
19645;SDS011;9971;52.446;13.452;2022-07-29T15:10:00;2.62;;;1.75;;
19645;SDS011;9971;52.446;13.452;2022-07-29T15:15:02;2.00;;;1.80;;
19645;SDS011;9971;52.446;13.452;2022-07-29T15:20:05;1.90;;;1.80;;
19645;SDS011;9971;52.446;13.452;2022-07-29T15:25:09;3.33;;;1.80;;
19645;SDS011;9971;52.446;13.452;2022-07-29T15:30:11;2.57;;;1.80;;
19645;SDS011;9971;52.446;13.452;2022-07-29T15:35:13;2.00;;;1.77;;
19645;SDS011;9971;52.446;13.452;2022-07-29T15:40:15;3.58;;;1.92;;
19645;SDS011;9971;52.446;13.452;2022-07-29T15:45:18;1.80;;;1.70;;
19645;SDS011;9971;52.446;13.452;2022-07-29T15:50:20;2.25;;;2.05;;
19645;SDS011;9971;52.446;13.452;2022-07-29T15:55:23;3.08;;;2.27;;
19645;SDS011;9971;52.446;13.452;2022-07-29T16:00:25;2.30;;;2.10;;
19645;SDS011;9971;52.446;13.452;2022-07-29T16:05:27;2.33;;;1.73;;
19645;SDS011;9971;52.446;13.452;2022-07-29T16:10:30;2.55;;;1.90;;
19645;SDS011;9971;52.446;13.452;2022-07-29T16:15:32;2.52;;;1.85;;
19645;SDS011;9971;52.446;13.452;2022-07-29T16:20:35;2.27;;;1.87;;
19645;SDS011;9971;52.446;13.452;2022-07-29T16:25:37;3.80;;;1.60;;
19645;SDS011;9971;52.446;13.452;2022-07-29T16:30:39;1.80;;;1.50;;
19645;SDS011;9971;52.446;13.452;2022-07-29T16:35:42;3.15;;;1.57;;
19645;SDS011;9971;52.446;13.452;2022-07-29T16:40:44;2.08;;;1.65;;
19645;SDS011;9971;52.446;13.452;2022-07-29T16:45:46;1.87;;;1.60;;
19645;SDS011;9971;52.446;13.452;2022-07-29T16:50:48;2.27;;;1.55;;
19645;SDS011;9971;52.446;13.452;2022-07-29T16:55:51;1.98;;;1.87;;
19645;SDS011;9971;52.446;13.452;2022-07-29T17:00:54;3.33;;;2.00;;
19645;SDS011;9971;52.446;13.452;2022-07-29T17:05:55;1.87;;;1.70;;
19645;SDS011;9971;52.446;13.452;2022-07-29T17:10:58;2.55;;;1.70;;
19645;SDS011;9971;52.446;13.452;2022-07-29T17:16:00;2.37;;;1.75;;
19645;SDS011;9971;52.446;13.452;2022-07-29T17:21:03;2.77;;;1.92;;
19645;SDS011;9971;52.446;13.452;2022-07-29T17:26:05;3.25;;;1.80;;
19645;SDS011;9971;52.446;13.452;2022-07-29T17:31:08;2.90;;;1.70;;
19645;SDS011;9971;52.446;13.452;2022-07-29T17:36:10;2.02;;;1.80;;
19645;SDS011;9971;52.446;13.452;2022-07-29T17:41:19;2.00;;;1.67;;
19645;SDS011;9971;52.446;13.452;2022-07-29T17:46:21;2.67;;;1.37;;
19645;SDS011;9971;52.446;13.452;2022-07-29T17:51:23;2.07;;;1.53;;
19645;SDS011;9971;52.446;13.452;2022-07-29T17:56:24;2.87;;;1.57;;
19645;SDS011;9971;52.446;13.452;2022-07-29T18:01:26;2.23;;;1.40;;
19645;SDS011;9971;52.446;13.452;2022-07-29T18:06:28;2.02;;;1.55;;
19645;SDS011;9971;52.446;13.452;2022-07-29T18:11:31;2.75;;;1.60;;
19645;SDS011;9971;52.446;13.452;2022-07-29T18:16:33;2.75;;;1.55;;
19645;SDS011;9971;52.446;13.452;2022-07-29T18:21:36;2.45;;;1.50;;
19645;SDS011;9971;52.446;13.452;2022-07-29T18:26:39;2.58;;;1.52;;
19645;SDS011;9971;52.446;13.452;2022-07-29T18:31:41;5.67;;;1.77;;
19645;SDS011;9971;52.446;13.452;2022-07-29T18:36:44;2.27;;;1.50;;
19645;SDS011;9971;52.446;13.452;2022-07-29T18:41:46;1.57;;;1.20;;
19645;SDS011;9971;52.446;13.452;2022-07-29T18:46:48;1.70;;;1.43;;
19645;SDS011;9971;52.446;13.452;2022-07-29T18:51:50;2.37;;;1.80;;
19645;SDS011;9971;52.446;13.452;2022-07-29T18:56:52;2.98;;;1.40;;
19645;SDS011;9971;52.446;13.452;2022-07-29T19:01:55;3.05;;;1.87;;
19645;SDS011;9971;52.446;13.452;2022-07-29T19:06:57;2.23;;;1.50;;
19645;SDS011;9971;52.446;13.452;2022-07-29T19:11:59;2.17;;;1.75;;
19645;SDS011;9971;52.446;13.452;2022-07-29T19:17:02;2.00;;;1.47;;
19645;SDS011;9971;52.446;13.452;2022-07-29T19:22:04;1.98;;;1.25;;
19645;SDS011;9971;52.446;13.452;2022-07-29T19:27:07;2.73;;;1.50;;
19645;SDS011;9971;52.446;13.452;2022-07-29T19:32:09;1.98;;;1.60;;
19645;SDS011;9971;52.446;13.452;2022-07-29T19:37:12;1.73;;;1.50;;
19645;SDS011;9971;52.446;13.452;2022-07-29T19:42:14;2.00;;;1.45;;
19645;SDS011;9971;52.446;13.452;2022-07-29T19:47:17;1.60;;;1.50;;
19645;SDS011;9971;52.446;13.452;2022-07-29T19:52:19;2.98;;;1.77;;
19645;SDS011;9971;52.446;13.452;2022-07-29T19:57:21;2.02;;;1.62;;
19645;SDS011;9971;52.446;13.452;2022-07-29T20:02:24;4.97;;;1.63;;
19645;SDS011;9971;52.446;13.452;2022-07-29T20:07:26;1.80;;;1.42;;
19645;SDS011;9971;52.446;13.452;2022-07-29T20:12:28;3.47;;;1.70;;
19645;SDS011;9971;52.446;13.452;2022-07-29T20:17:30;4.17;;;1.53;;
19645;SDS011;9971;52.446;13.452;2022-07-29T20:22:33;3.10;;;1.72;;
19645;SDS011;9971;52.446;13.452;2022-07-29T20:27:35;4.97;;;1.40;;
19645;SDS011;9971;52.446;13.452;2022-07-29T20:32:37;2.90;;;1.60;;
19645;SDS011;9971;52.446;13.452;2022-07-29T20:37:39;2.37;;;1.40;;
19645;SDS011;9971;52.446;13.452;2022-07-29T20:42:41;4.87;;;1.53;;
19645;SDS011;9971;52.446;13.452;2022-07-29T20:47:43;2.42;;;1.35;;
19645;SDS011;9971;52.446;13.452;2022-07-29T20:52:46;3.23;;;1.60;;
19645;SDS011;9971;52.446;13.452;2022-07-29T20:57:48;3.30;;;1.70;;
19645;SDS011;9971;52.446;13.452;2022-07-29T21:02:50;1.70;;;1.57;;
19645;SDS011;9971;52.446;13.452;2022-07-29T21:07:53;2.62;;;1.80;;
19645;SDS011;9971;52.446;13.452;2022-07-29T21:12:55;3.10;;;1.65;;
19645;SDS011;9971;52.446;13.452;2022-07-29T21:17:58;2.33;;;1.67;;
19645;SDS011;9971;52.446;13.452;2022-07-29T21:23:00;3.43;;;1.70;;
19645;SDS011;9971;52.446;13.452;2022-07-29T21:28:03;2.62;;;1.60;;
19645;SDS011;9971;52.446;13.452;2022-07-29T21:33:11;2.40;;;1.60;;
19645;SDS011;9971;52.446;13.452;2022-07-29T21:38:13;3.37;;;2.00;;
19645;SDS011;9971;52.446;13.452;2022-07-29T21:43:16;2.95;;;1.55;;
19645;SDS011;9971;52.446;13.452;2022-07-29T21:48:19;3.67;;;1.93;;
19645;SDS011;9971;52.446;13.452;2022-07-29T21:53:20;2.73;;;1.57;;
19645;SDS011;9971;52.446;13.452;2022-07-29T21:58:23;3.72;;;1.52;;
19645;SDS011;9971;52.446;13.452;2022-07-29T22:03:25;2.87;;;1.67;;
19645;SDS011;9971;52.446;13.452;2022-07-29T22:08:27;2.95;;;1.80;;
19645;SDS011;9971;52.446;13.452;2022-07-29T22:13:29;3.85;;;1.65;;
19645;SDS011;9971;52.446;13.452;2022-07-29T22:18:32;4.60;;;1.55;;
19645;SDS011;9971;52.446;13.452;2022-07-29T22:23:34;1.32;;;1.02;;
19645;SDS011;9971;52.446;13.452;2022-07-29T22:28:37;0.28;;;0.28;;
19645;SDS011;9971;52.446;13.452;2022-07-29T22:33:39;0.10;;;0.08;;
19645;SDS011;9971;52.446;13.452;2022-07-29T22:38:42;0.00;;;0.00;;
19645;SDS011;9971;52.446;13.452;2022-07-29T22:43:44;0.10;;;0.10;;
19645;SDS011;9971;52.446;13.452;2022-07-29T22:48:47;0.07;;;0.07;;
19645;SDS011;9971;52.446;13.452;2022-07-29T22:53:49;0.67;;;0.13;;
19645;SDS011;9971;52.446;13.452;2022-07-29T22:58:51;0.13;;;0.13;;
19645;SDS011;9971;52.446;13.452;2022-07-29T23:03:53;0.17;;;0.17;;
19645;SDS011;9971;52.446;13.452;2022-07-29T23:08:55;0.20;;;0.20;;
19645;SDS011;9971;52.446;13.452;2022-07-29T23:13:58;0.33;;;0.20;;
19645;SDS011;9971;52.446;13.452;2022-07-29T23:19:01;0.30;;;0.30;;
19645;SDS011;9971;52.446;13.452;2022-07-29T23:24:03;0.20;;;0.17;;
19645;SDS011;9971;52.446;13.452;2022-07-29T23:29:06;0.10;;;0.10;;
19645;SDS011;9971;52.446;13.452;2022-07-29T23:34:08;0.10;;;0.10;;
19645;SDS011;9971;52.446;13.452;2022-07-29T23:39:11;0.33;;;0.33;;
19645;SDS011;9971;52.446;13.452;2022-07-29T23:44:13;0.17;;;0.17;;
19645;SDS011;9971;52.446;13.452;2022-07-29T23:49:15;0.10;;;0.10;;
19645;SDS011;9971;52.446;13.452;2022-07-29T23:54:18;0.20;;;0.20;;
19645;SDS011;9971;52.446;13.452;2022-07-29T23:59:21;0.20;;;0.20;;
